EDHL/LBC METAR and TAF weather

Enter ICAO airport designator
Station Type Date Time Source
EDHL METAR 2023/01/30 10:20 UTC NOAA

EDHL 301020Z 28020G35KT 210V330 8000 -RA FEW017 SCT020 BKN027 06/03 Q1003


Station Type Date Time Source
EDHL Decoded METAR 2023/01/30 10:20 UTC NOAA

Luebeck-Blankensee, Germany (EDHL) 53-49N 010-42E 15M
Jan 30, 2023 - 05:20 AM EST / 2023.01.30 1020 UTC
Wind: from the W (280 degrees) at 23 MPH (20 KT) gusting to 40 MPH (35 KT) (direction variable):0
Visibility: 4 mile(s):0
Sky conditions: mostly cloudy
Weather: light rain
Temperature: 42 F (6 C)
Dew Point: 37 F (3 C)
Relative Humidity: 81%
Pressure (altimeter): 29.62 in. Hg (1003 hPa)
ob: EDHL 301020Z 28020G35KT 210V330 8000 -RA FEW017 SCT020 BKN027 06/03 Q1003
cycle: 10

Station Type Date Time Source
EDHL TAF 2010/02/22 14:20 UTC NOAA

METAR EDHL 221420Z 15004KT 110V180 9999 FEW039 SCT120 05/02 Q0990
RMK X

Example: see airport list